Time;durP1;ratioP1;P1;durP2;ratioP2;P2;SDS_P1;SDS_P2;PMS_P1;PMS_P2;Temp;Humidity;BMP_temperature;BMP_pressure;BME280_temperature;BME280_humidity;BME280_pressure;Samples;Min_cycle;Max_cycle;Signal;HPM_P1;HPM_P2
2021/10/01 00:01:46;;;;;;;0.70;0.70;;;17.90;99.90;;;;;;5006482;28;20049;-76
2021/10/01 00:04:12;;;;;;;1.40;1.10;;;17.90;99.90;;;;;;5001439;28;20034;-76
2021/10/01 00:06:38;;;;;;;2.78;1.10;;;17.80;99.90;;;;;;5011643;28;20026;-76
2021/10/01 00:09:05;;;;;;;2.45;1.02;;;17.80;99.90;;;;;;5010220;28;20073;-76
2021/10/01 00:11:31;;;;;;;3.35;1.10;;;17.80;99.90;;;;;;5013227;28;20070;-76
2021/10/01 00:13:57;;;;;;;4.13;1.00;;;17.80;99.90;;;;;;5015571;28;20517;-76
2021/10/01 00:16:23;;;;;;;2.25;1.08;;;17.80;99.90;;;;;;5015557;28;20030;-76
2021/10/01 00:18:49;;;;;;;2.38;0.80;;;17.70;99.90;;;;;;5015315;28;20018;-76
2021/10/01 00:21:15;;;;;;;2.55;1.00;;;17.70;99.90;;;;;;5015492;28;20034;-76
2021/10/01 00:23:41;;;;;;;2.03;1.15;;;17.70;99.90;;;;;;5030665;28;20525;-76
2021/10/01 00:26:07;;;;;;;1.85;0.98;;;17.70;99.90;;;;;;5013994;28;20053;-76
2021/10/01 00:28:33;;;;;;;1.77;1.20;;;17.70;99.90;;;;;;5030527;28;20475;-76
2021/10/01 00:30:59;;;;;;;3.50;0.90;;;17.60;99.90;;;;;;5015309;28;20026;-76
2021/10/01 00:33:25;;;;;;;1.45;1.00;;;17.60;99.90;;;;;;5015221;28;20029;-76
2021/10/01 00:35:51;;;;;;;2.67;0.95;;;17.50;99.90;;;;;;5015367;28;20010;-76
2021/10/01 00:38:17;;;;;;;2.90;1.13;;;17.50;99.90;;;;;;5015078;28;20069;-76
2021/10/01 00:40:42;;;;;;;2.45;1.70;;;17.50;99.90;;;;;;5015068;28;20472;-76
2021/10/01 00:43:08;;;;;;;1.25;0.80;;;17.40;99.90;;;;;;5015263;28;20010;-76
2021/10/01 00:45:34;;;;;;;4.47;1.00;;;17.40;99.90;;;;;;5015052;28;20030;-76
2021/10/01 00:48:00;;;;;;;0.90;0.90;;;17.40;99.90;;;;;;5014906;28;20470;-76
2021/10/01 00:50:26;;;;;;;1.67;1.20;;;17.30;99.90;;;;;;5014981;28;20033;-76
2021/10/01 00:52:52;;;;;;;1.17;0.95;;;17.20;99.90;;;;;;5014973;28;20017;-76
2021/10/01 00:55:18;;;;;;;3.83;0.93;;;17.20;99.90;;;;;;5014865;28;20084;-76
2021/10/01 00:57:44;;;;;;;1.77;1.13;;;17.20;99.90;;;;;;5014759;28;20458;-76
2021/10/01 01:00:23;;;;;;;2.15;1.02;;;17.10;99.90;;;;;;5014654;28;20030;-76
2021/10/01 01:02:50;;;;;;;1.77;1.00;;;17.00;99.90;;;;;;5014729;28;20442;-76
2021/10/01 01:05:16;;;;;;;3.35;1.10;;;17.00;99.90;;;;;;5014592;28;20117;-76
2021/10/01 01:08:02;;;;;;;2.72;1.02;;;17.00;99.90;;;;;;5014658;28;20044;-76
2021/10/01 01:10:39;;;;;;;1.92;1.00;;;16.90;99.90;;;;;;5014537;28;20026;-76
2021/10/01 01:13:23;;;;;;;1.83;1.73;;;16.90;99.90;;;;;;5014639;28;20033;-76
2021/10/01 01:15:58;;;;;;;1.95;0.90;;;16.90;99.90;;;;;;5014343;28;20538;-76
2021/10/01 01:18:31;;;;;;;3.10;1.30;;;16.90;99.90;;;;;;5014516;28;20064;-76
2021/10/01 01:20:59;;;;;;;3.63;1.13;;;16.80;99.90;;;;;;5014437;28;20053;-76
2021/10/01 01:23:31;;;;;;;1.13;1.05;;;16.80;99.90;;;;;;5012893;28;20507;-76
2021/10/01 01:26:18;;;;;;;2.67;1.20;;;16.70;99.90;;;;;;5012967;28;20558;-76
2021/10/01 01:29:01;;;;;;;2.10;1.17;;;16.70;99.90;;;;;;5013939;28;20033;-76
2021/10/01 01:31:36;;;;;;;2.47;1.08;;;16.70;99.90;;;;;;5014153;28;20029;-76
2021/10/01 01:34:03;;;;;;;4.03;1.17;;;16.70;99.90;;;;;;5014207;28;20061;-76
2021/10/01 01:36:30;;;;;;;1.35;1.20;;;16.70;99.90;;;;;;5013999;28;20018;-76
2021/10/01 01:38:58;;;;;;;1.35;1.10;;;16.60;99.90;;;;;;5012630;28;20507;-76
2021/10/01 01:41:24;;;;;;;2.83;1.10;;;16.60;99.90;;;;;;5012756;28;20014;-76
2021/10/01 01:43:53;;;;;;;2.58;1.05;;;16.60;99.90;;;;;;5013938;28;20063;-76
2021/10/01 01:46:20;;;;;;;4.32;1.20;;;16.60;99.90;;;;;;5013453;28;20080;-76
2021/10/01 01:48:47;;;;;;;1.35;1.20;;;16.60;99.90;;;;;;5013771;28;20030;-76
2021/10/01 01:51:14;;;;;;;3.85;1.38;;;16.60;99.90;;;;;;5029138;28;20412;-76
2021/10/01 01:53:41;;;;;;;2.63;1.10;;;16.60;99.90;;;;;;5013729;28;20028;-76
2021/10/01 01:56:09;;;;;;;2.95;1.00;;;16.60;99.90;;;;;;4998475;28;20033;-76
2021/10/01 01:58:35;;;;;;;2.10;1.38;;;16.60;99.90;;;;;;4993946;28;20057;-76
2021/10/01 02:01:04;;;;;;;1.95;1.08;;;16.60;99.90;;;;;;4994173;28;20109;-76
2021/10/01 02:03:32;;;;;;;1.30;1.20;;;16.60;99.90;;;;;;4997932;28;20061;-76
2021/10/01 02:05:59;;;;;;;3.38;1.20;;;16.60;99.90;;;;;;5028698;28;20030;-76
2021/10/01 02:08:26;;;;;;;0.90;0.90;;;16.60;99.90;;;;;;5013469;28;20514;-76
2021/10/01 02:10:53;;;;;;;0.95;0.90;;;16.60;99.90;;;;;;5013565;28;20022;-76
2021/10/01 02:13:20;;;;;;;1.58;1.30;;;16.50;99.90;;;;;;5013267;28;20030;-76
2021/10/01 02:15:51;;;;;;;1.30;1.20;;;16.50;99.90;;;;;;5013208;28;20037;-76
2021/10/01 02:18:25;;;;;;;2.30;1.00;;;16.40;99.90;;;;;;5013394;28;20027;-76
2021/10/01 02:20:53;;;;;;;1.63;0.95;;;16.50;99.90;;;;;;5028466;28;20435;-76
2021/10/01 02:23:19;;;;;;;1.60;1.27;;;16.40;99.90;;;;;;5013246;28;20026;-76
2021/10/01 02:28:56;;;;;;;0.95;0.90;;;16.40;99.90;;;;;;5013114;28;20032;-76
2021/10/01 02:31:28;;;;;;;2.40;1.10;;;16.40;99.90;;;;;;5004882;28;20085;-76
2021/10/01 02:33:57;;;;;;;1.17;1.08;;;16.40;99.90;;;;;;5012409;28;20490;-76
2021/10/01 02:36:23;;;;;;;1.38;1.20;;;16.40;99.90;;;;;;5012965;28;20050;-76
2021/10/01 02:38:51;;;;;;;1.30;1.20;;;16.40;99.90;;;;;;5012839;28;20038;-76
2021/10/01 02:41:16;;;;;;;1.05;0.95;;;16.30;99.90;;;;;;5011479;28;20391;-76
2021/10/01 02:43:42;;;;;;;1.10;1.10;;;16.30;99.90;;;;;;5012931;28;20034;-76
2021/10/01 02:46:08;;;;;;;1.77;1.17;;;16.20;99.90;;;;;;5012755;28;20037;-76
2021/10/01 02:48:35;;;;;;;1.40;1.30;;;16.20;99.90;;;;;;5012436;28;20030;-76
2021/10/01 02:51:05;;;;;;;1.40;1.30;;;16.10;99.90;;;;;;5012700;28;20076;-76
2021/10/01 02:53:37;;;;;;;1.23;1.10;;;16.10;99.90;;;;;;5011495;28;20428;-76
2021/10/01 02:56:14;;;;;;;2.47;1.50;;;16.10;99.90;;;;;;5012679;28;20032;-76
2021/10/01 02:58:45;;;;;;;1.33;1.20;;;16.10;99.90;;;;;;5012569;28;20158;-76
2021/10/01 03:01:14;;;;;;;5.43;1.08;;;16.10;99.90;;;;;;5012448;28;20022;-76
2021/10/01 03:03:47;;;;;;;2.25;1.55;;;16.00;99.90;;;;;;5011132;28;20026;-76
2021/10/01 03:06:17;;;;;;;2.80;1.10;;;16.00;99.90;;;;;;5012504;28;20431;-76
2021/10/01 03:08:44;;;;;;;2.65;1.27;;;16.10;99.90;;;;;;5012266;28;20029;-76
2021/10/01 03:11:11;;;;;;;2.90;1.10;;;16.20;99.90;;;;;;5012263;28;20026;-76
2021/10/01 03:13:40;;;;;;;1.77;1.20;;;16.30;99.90;;;;;;5010840;28;20018;-76
2021/10/01 03:16:07;;;;;;;1.50;1.40;;;16.30;99.90;;;;;;5012383;28;20475;-76
2021/10/01 03:18:33;;;;;;;1.35;1.25;;;16.30;99.90;;;;;;5010825;28;20041;-76
2021/10/01 03:21:02;;;;;;;1.33;1.23;;;16.20;99.90;;;;;;5012070;28;20068;-76
2021/10/01 03:23:28;;;;;;;2.05;1.40;;;16.20;99.90;;;;;;5012181;28;20100;-76
2021/10/01 03:25:54;;;;;;;5.00;1.33;;;16.20;99.90;;;;;;5012153;28;20184;-76
2021/10/01 03:28:21;;;;;;;4.03;1.10;;;16.20;99.90;;;;;;5011735;28;20033;-76
2021/10/01 03:30:47;;;;;;;2.58;1.30;;;16.10;99.90;;;;;;5010844;28;20018;-76
2021/10/01 03:33:14;;;;;;;1.30;1.20;;;16.10;99.90;;;;;;5012003;28;20029;-76
2021/10/01 03:35:42;;;;;;;1.23;1.13;;;16.10;99.90;;;;;;5011841;28;20022;-76
2021/10/01 03:38:13;;;;;;;2.05;1.52;;;16.00;99.90;;;;;;5011758;28;20022;-76
2021/10/01 03:40:43;;;;;;;1.58;1.17;;;16.00;99.90;;;;;;5011852;28;20045;-76
2021/10/01 03:43:14;;;;;;;2.50;1.70;;;16.00;99.90;;;;;;5011907;28;20026;-76
2021/10/01 03:45:40;;;;;;;2.03;1.40;;;15.90;99.90;;;;;;5011231;28;20037;-76
2021/10/01 03:48:06;;;;;;;2.25;1.50;;;16.00;99.90;;;;;;5011645;28;20041;-76
2021/10/01 03:50:33;;;;;;;1.92;1.17;;;15.90;99.90;;;;;;5011692;28;20064;-76
2021/10/01 03:53:00;;;;;;;1.10;1.00;;;15.90;99.90;;;;;;5011482;28;20069;-76
2021/10/01 03:55:26;;;;;;;2.45;1.08;;;15.90;99.90;;;;;;5009144;28;20141;-76
2021/10/01 03:57:52;;;;;;;1.35;1.20;;;15.90;99.90;;;;;;4991929;28;20058;-76
2021/10/01 04:00:19;;;;;;;1.10;1.00;;;15.90;99.90;;;;;;4992092;28;20029;-76
2021/10/01 04:02:46;;;;;;;1.70;1.13;;;15.90;99.90;;;;;;4992142;28;20061;-76
2021/10/01 04:05:13;;;;;;;1.60;1.25;;;15.80;99.90;;;;;;5009634;28;20022;-76
2021/10/01 04:07:39;;;;;;;1.15;1.15;;;15.90;99.90;;;;;;5011699;28;20472;-76
2021/10/01 04:10:06;;;;;;;1.48;1.38;;;15.90;99.90;;;;;;5011497;28;20121;-76
2021/10/01 04:12:32;;;;;;;1.25;1.15;;;15.90;99.90;;;;;;5011526;28;20065;-76
2021/10/01 04:14:58;;;;;;;1.60;1.50;;;15.80;99.90;;;;;;5011438;28;20061;-76
2021/10/01 04:17:24;;;;;;;1.48;1.38;;;15.80;99.90;;;;;;5011466;28;20030;-76
2021/10/01 04:19:50;;;;;;;3.05;1.23;;;15.80;99.90;;;;;;5011395;28;20033;-76
2021/10/01 04:22:16;;;;;;;1.77;1.27;;;15.70;99.90;;;;;;5011535;28;20068;-76
2021/10/01 04:24:42;;;;;;;3.58;1.45;;;15.70;99.90;;;;;;5011469;28;20116;-76
2021/10/01 04:27:08;;;;;;;1.50;1.30;;;15.70;99.90;;;;;;5010101;28;20468;-76
2021/10/01 04:29:33;;;;;;;1.58;1.48;;;15.80;99.90;;;;;;5011277;28;20480;-76
2021/10/01 04:32:03;;;;;;;0.90;0.90;;;15.80;99.90;;;;;;5011424;28;20037;-76
2021/10/01 04:34:33;;;;;;;1.23;1.10;;;15.80;99.90;;;;;;5011231;28;20025;-76
2021/10/01 04:36:59;;;;;;;1.58;1.17;;;15.80;99.90;;;;;;5011123;28;20097;-76
2021/10/01 04:39:25;;;;;;;1.42;1.30;;;15.80;99.90;;;;;;5011392;28;20054;-76
2021/10/01 04:41:50;;;;;;;3.75;1.40;;;15.70;99.90;;;;;;5011393;28;20080;-76
2021/10/01 04:44:16;;;;;;;2.60;1.10;;;15.80;99.90;;;;;;5011258;28;20484;-76
2021/10/01 04:46:42;;;;;;;3.38;1.17;;;15.70;99.90;;;;;;5011348;28;20028;-76
2021/10/01 04:49:08;;;;;;;1.10;1.10;;;15.70;99.90;;;;;;5011090;28;20057;-76
2021/10/01 04:51:34;;;;;;;3.05;1.67;;;15.70;99.90;;;;;;5026217;28;20369;-76
2021/10/01 04:53:59;;;;;;;2.45;0.73;;;15.60;99.90;;;;;;5011400;28;20034;-76
2021/10/01 04:56:25;;;;;;;5.97;1.40;;;15.60;99.90;;;;;;5025486;28;20476;-76
2021/10/01 04:58:51;;;;;;;2.00;1.42;;;15.60;99.90;;;;;;5013186;28;20026;-76
2021/10/01 05:01:17;;;;;;;2.85;1.25;;;15.60;99.90;;;;;;5012775;28;20037;-76
2021/10/01 05:03:42;;;;;;;1.38;1.23;;;15.60;99.90;;;;;;5010923;28;20561;-76
2021/10/01 05:06:08;;;;;;;2.85;1.27;;;15.60;99.90;;;;;;5014536;28;20519;-76
2021/10/01 05:08:34;;;;;;;2.33;1.48;;;15.50;99.90;;;;;;5014619;28;20033;-76
2021/10/01 05:10:59;;;;;;;1.38;1.27;;;15.50;99.90;;;;;;5014579;28;20032;-76
2021/10/01 05:13:25;;;;;;;3.08;1.23;;;15.50;99.90;;;;;;5014677;28;20026;-76
2021/10/01 05:15:51;;;;;;;1.23;1.10;;;15.50;99.90;;;;;;5013949;28;20050;-76
2021/10/01 05:18:17;;;;;;;1.50;1.40;;;15.50;99.90;;;;;;5014142;28;20037;-76
2021/10/01 05:20:44;;;;;;;5.03;1.50;;;15.50;99.90;;;;;;5014376;28;20068;-76
2021/10/01 05:23:09;;;;;;;3.47;1.30;;;15.50;99.90;;;;;;5013230;28;20399;-77
2021/10/01 05:25:35;;;;;;;1.17;1.17;;;15.50;99.90;;;;;;5012689;28;20026;-77
2021/10/01 05:28:02;;;;;;;1.40;1.05;;;15.40;99.90;;;;;;5012716;28;20550;-77
2021/10/01 05:30:28;;;;;;;1.48;1.27;;;15.40;99.90;;;;;;5012594;28;20026;-77
2021/10/01 05:32:54;;;;;;;3.63;2.10;;;15.40;99.90;;;;;;5011182;28;20073;-77
2021/10/01 05:35:20;;;;;;;1.75;1.23;;;15.40;99.90;;;;;;5012585;28;20036;-77
2021/10/01 05:37:46;;;;;;;1.30;1.20;;;15.40;99.90;;;;;;5014014;28;20034;-77
2021/10/01 05:40:12;;;;;;;1.60;1.35;;;15.40;99.90;;;;;;5014250;28;20417;-77
2021/10/01 05:42:37;;;;;;;2.85;1.23;;;15.40;99.90;;;;;;5012789;28;20029;-77
2021/10/01 05:45:06;;;;;;;1.75;1.65;;;15.40;99.90;;;;;;5028985;28;20053;-77
2021/10/01 05:47:32;;;;;;;2.22;1.60;;;15.40;99.90;;;;;;5013935;28;20029;-77
2021/10/01 05:50:03;;;;;;;1.13;0.98;;;15.40;99.90;;;;;;5011730;28;20058;-77
2021/10/01 05:54:59;;;;;;;3.35;1.88;;;15.40;99.90;;;;;;5011544;28;20289;-76
2021/10/01 05:57:25;;;;;;;1.73;1.63;;;15.40;99.90;;;;;;5013836;28;20487;-76
2021/10/01 05:59:52;;;;;;;3.70;1.80;;;15.40;99.90;;;;;;5014085;28;20048;-76
2021/10/01 06:02:20;;;;;;;1.50;1.40;;;15.50;99.90;;;;;;5012790;28;20037;-76
2021/10/01 06:04:46;;;;;;;2.30;1.60;;;15.50;99.90;;;;;;5012372;28;20034;-76
2021/10/01 06:07:13;;;;;;;2.33;1.33;;;15.60;99.90;;;;;;5012600;28;20461;-76
2021/10/01 06:09:43;;;;;;;1.55;1.45;;;15.60;99.90;;;;;;5011741;28;20022;-76
2021/10/01 06:12:11;;;;;;;3.75;1.20;;;15.60;99.90;;;;;;5013738;28;20101;-76
2021/10/01 06:14:37;;;;;;;6.03;1.60;;;15.60;99.90;;;;;;5013934;28;20392;-76
2021/10/01 06:17:04;;;;;;;1.00;1.00;;;15.60;99.90;;;;;;5013900;28;20040;-76
2021/10/01 06:19:32;;;;;;;4.15;1.83;;;15.70;99.90;;;;;;5014265;28;20034;-76
2021/10/01 06:21:58;;;;;;;2.67;1.67;;;15.70;99.90;;;;;;5014469;28;20018;-77
2021/10/01 06:24:24;;;;;;;4.32;1.50;;;15.70;99.90;;;;;;5030191;28;20030;-76
2021/10/01 06:26:50;;;;;;;1.90;1.77;;;15.80;99.90;;;;;;5014425;28;20026;-76
2021/10/01 06:29:16;;;;;;;6.85;2.22;;;15.80;99.90;;;;;;5013229;28;20373;-76
2021/10/01 06:31:44;;;;;;;2.13;1.92;;;15.90;99.90;;;;;;5028261;28;20395;-76
2021/10/01 06:34:10;;;;;;;2.22;1.98;;;15.90;99.90;;;;;;5004541;28;20113;-76
2021/10/01 06:36:37;;;;;;;1.80;1.70;;;16.00;99.90;;;;;;4992061;28;20494;-76
2021/10/01 06:39:04;;;;;;;1.52;1.42;;;16.00;99.90;;;;;;4993039;28;20030;-76
2021/10/01 06:41:30;;;;;;;3.00;2.10;;;16.10;99.90;;;;;;4993498;28;20565;-76
2021/10/01 06:44:01;;;;;;;4.75;1.85;;;16.00;99.90;;;;;;4993680;28;20018;-76
2021/10/01 06:46:41;;;;;;;1.27;1.17;;;16.10;99.90;;;;;;4992146;28;20476;-76
2021/10/01 07:22:29;;;;;;;1.15;1.05;;;16.80;99.90;;;;;;4992923;28;20041;-76
2021/10/01 08:19:38;;;;;;;1.13;1.02;;;17.60;99.90;;;;;;5011981;28;20393;-76
2021/10/01 08:22:04;;;;;;;1.77;1.00;;;17.60;99.90;;;;;;5011440;28;20026;-76
2021/10/01 08:24:31;;;;;;;1.02;1.00;;;17.70;99.90;;;;;;5011590;28;20109;-76
2021/10/01 08:26:57;;;;;;;0.88;0.77;;;17.70;99.90;;;;;;5011541;28;20018;-76
2021/10/01 08:29:24;;;;;;;4.10;0.88;;;17.80;99.90;;;;;;5011409;28;20033;-76
2021/10/01 08:31:51;;;;;;;1.70;0.70;;;17.90;99.90;;;;;;5012138;28;20026;-76
2021/10/01 08:34:17;;;;;;;4.15;1.40;;;17.90;99.90;;;;;;5015542;28;20025;-76
2021/10/01 08:36:44;;;;;;;1.23;1.13;;;18.00;99.90;;;;;;5015336;28;20022;-76
2021/10/01 08:39:11;;;;;;;1.20;1.10;;;18.00;99.90;;;;;;5015301;28;20018;-76
2021/10/01 08:41:37;;;;;;;1.25;1.15;;;18.10;99.90;;;;;;5015374;28;20044;-76
2021/10/01 08:44:04;;;;;;;1.38;0.82;;;18.10;99.90;;;;;;5013999;28;20381;-76
2021/10/01 08:46:31;;;;;;;2.90;0.90;;;18.10;99.90;;;;;;5015176;28;20034;-76
2021/10/01 08:49:01;;;;;;;1.73;1.33;;;18.20;99.90;;;;;;5015127;28;20443;-76
2021/10/01 08:51:28;;;;;;;7.28;1.80;;;18.20;99.90;;;;;;5015192;28;20056;-76
2021/10/01 08:53:55;;;;;;;1.80;1.70;;;18.30;99.90;;;;;;5015135;28;20021;-76
2021/10/01 08:56:24;;;;;;;4.18;1.95;;;18.30;99.90;;;;;;5014967;28;20022;-76
2021/10/01 08:58:50;;;;;;;3.60;1.27;;;18.30;99.90;;;;;;5013738;28;20030;-76
2021/10/01 09:01:15;;;;;;;5.28;2.00;;;18.40;99.90;;;;;;5014925;28;20075;-76
2021/10/01 09:03:42;;;;;;;1.60;1.50;;;18.50;99.90;;;;;;5014610;28;20026;-76
2021/10/01 09:06:08;;;;;;;2.95;1.23;;;18.50;99.90;;;;;;5013679;28;20388;-76
2021/10/01 09:08:54;;;;;;;2.22;1.30;;;18.50;99.90;;;;;;5014629;28;20376;-76
2021/10/01 09:11:29;;;;;;;1.80;1.15;;;18.50;99.90;;;;;;5014609;28;20018;-76
2021/10/01 09:14:00;;;;;;;1.65;1.27;;;18.50;99.90;;;;;;5014674;28;20531;-76
2021/10/01 09:16:25;;;;;;;1.27;1.10;;;18.50;99.90;;;;;;5014599;28;20076;-76
2021/10/01 09:18:51;;;;;;;1.30;1.20;;;18.50;99.90;;;;;;5014584;28;20030;-76
2021/10/01 09:21:19;;;;;;;1.50;1.40;;;18.50;99.90;;;;;;5014565;28;20030;-76
2021/10/01 09:24:00;;;;;;;1.45;0.88;;;18.50;99.90;;;;;;5014405;28;20036;-76
2021/10/01 09:26:28;;;;;;;1.05;1.00;;;18.70;99.70;;;;;;5014567;28;20109;-76
2021/10/01 09:29:07;;;;;;;2.13;1.00;;;18.70;99.80;;;;;;5013036;28;20477;-76
2021/10/01 09:31:37;;;;;;;2.17;1.23;;;18.80;99.20;;;;;;5014458;28;20018;-76
2021/10/01 09:34:07;;;;;;;3.97;1.10;;;18.80;99.90;;;;;;5014429;28;20033;-76
2021/10/01 09:36:34;;;;;;;1.80;1.10;;;18.80;99.50;;;;;;5014114;28;20018;-76
2021/10/01 09:39:00;;;;;;;2.78;1.40;;;18.70;98.90;;;;;;5014914;28;20076;-76
2021/10/01 09:41:29;;;;;;;1.17;1.00;;;18.70;99.10;;;;;;5015215;28;20026;-76
2021/10/01 09:44:13;;;;;;;1.33;1.10;;;18.70;98.40;;;;;;5012100;28;20030;-76
2021/10/01 09:46:46;;;;;;;5.47;0.95;;;18.90;98.40;;;;;;4995583;28;20496;-76
2021/10/01 09:49:15;;;;;;;1.00;0.90;;;18.90;98.40;;;;;;4995240;28;20388;-76
2021/10/01 09:51:52;;;;;;;2.38;1.10;;;19.00;98.00;;;;;;4995612;28;20026;-76
2021/10/01 09:54:21;;;;;;;4.18;0.93;;;19.10;98.80;;;;;;5013243;28;20467;-76
2021/10/01 09:56:47;;;;;;;2.88;1.30;;;19.10;99.00;;;;;;5028999;28;20423;-76
2021/10/01 09:59:25;;;;;;;2.00;0.80;;;19.10;98.10;;;;;;5013767;28;20519;-76
2021/10/01 10:02:18;;;;;;;5.80;1.10;;;19.10;98.80;;;;;;5014306;28;20026;-76
2021/10/01 10:05:03;;;;;;;2.25;0.80;;;19.10;97.30;;;;;;5028640;28;20479;-76
2021/10/01 10:07:29;;;;;;;2.17;0.55;;;19.20;98.60;;;;;;5012872;28;20117;-76
2021/10/01 10:09:57;;;;;;;1.42;0.82;;;19.10;98.20;;;;;;5012758;28;20108;-76
2021/10/01 10:12:26;;;;;;;1.40;1.00;;;19.20;97.40;;;;;;5012718;28;20033;-76
2021/10/01 10:14:54;;;;;;;1.42;0.73;;;19.30;98.10;;;;;;5012807;28;20053;-76
2021/10/01 10:17:25;;;;;;;0.98;0.82;;;19.30;98.20;;;;;;5013284;28;20510;-76
2021/10/01 10:20:03;;;;;;;1.20;0.80;;;19.40;98.00;;;;;;5013308;28;20292;-76
2021/10/01 10:22:31;;;;;;;5.60;1.00;;;19.50;97.30;;;;;;5013286;28;20034;-76
2021/10/01 10:24:57;;;;;;;1.10;1.10;;;19.50;95.60;;;;;;5013211;28;20497;-76
2021/10/01 10:27:27;;;;;;;0.82;0.80;;;19.50;94.20;;;;;;5013488;28;20029;-76
2021/10/01 10:29:53;;;;;;;1.55;0.70;;;19.50;94.90;;;;;;5013238;28;20084;-76
2021/10/01 10:32:22;;;;;;;1.90;0.50;;;19.50;95.20;;;;;;5013130;28;20105;-76
2021/10/01 10:34:54;;;;;;;0.63;0.63;;;19.60;94.60;;;;;;5012948;28;20014;-76
2021/10/01 10:37:33;;;;;;;0.50;0.50;;;19.60;95.10;;;;;;5012858;28;20384;-76
2021/10/01 10:40:05;;;;;;;1.92;0.70;;;19.60;94.00;;;;;;5013047;28;20053;-76
2021/10/01 10:42:37;;;;;;;2.22;0.55;;;19.70;93.80;;;;;;5011666;28;20083;-76
2021/10/01 10:45:09;;;;;;;3.25;0.75;;;19.80;93.50;;;;;;5012800;28;20076;-76
2021/10/01 10:47:47;;;;;;;1.17;0.90;;;19.70;94.00;;;;;;5012706;28;20030;-76
2021/10/01 10:50:22;;;;;;;3.35;0.88;;;19.80;94.40;;;;;;5011499;28;20476;-76
2021/10/01 10:53:13;;;;;;;0.82;0.80;;;19.80;94.60;;;;;;5012919;28;20022;-76
2021/10/01 10:55:56;;;;;;;4.88;0.90;;;19.90;94.60;;;;;;5012551;28;20020;-76
2021/10/01 10:58:28;;;;;;;1.10;0.77;;;19.90;92.90;;;;;;5012356;28;20041;-76
2021/10/01 11:01:21;;;;;;;2.65;0.93;;;19.90;93.60;;;;;;5011325;28;20061;-76
2021/10/01 11:03:51;;;;;;;0.70;0.70;;;20.00;91.30;;;;;;5012629;28;20022;-76
2021/10/01 11:06:18;;;;;;;0.70;0.70;;;19.90;93.40;;;;;;5013842;28;20108;-76
2021/10/01 11:09:13;;;;;;;0.93;0.82;;;20.10;93.80;;;;;;5013541;28;20116;-76
2021/10/01 11:11:40;;;;;;;1.48;1.00;;;20.10;93.30;;;;;;5007927;28;20248;-76
2021/10/01 11:14:15;;;;;;;2.10;0.75;;;20.10;92.80;;;;;;5013366;28;20505;-76
2021/10/01 11:16:46;;;;;;;0.55;0.52;;;20.20;91.70;;;;;;5013525;28;20018;-76
2021/10/01 11:19:12;;;;;;;2.15;0.90;;;20.30;90.50;;;;;;5013411;28;20468;-76
2021/10/01 11:21:43;;;;;;;0.75;0.75;;;20.30;91.10;;;;;;5013498;28;20446;-76
2021/10/01 11:24:17;;;;;;;0.70;0.65;;;20.30;89.80;;;;;;5013472;28;20037;-73
2021/10/01 11:26:51;;;;;;;1.17;0.73;;;20.40;88.60;;;;;;5013109;28;20041;-73
2021/10/01 11:29:24;;;;;;;1.02;1.02;;;20.40;86.00;;;;;;5011767;28;20022;-76
2021/10/01 11:31:56;;;;;;;1.08;1.08;;;20.30;86.50;;;;;;5011495;28;20133;-76
2021/10/01 11:34:45;;;;;;;1.98;0.80;;;20.30;86.80;;;;;;5012639;28;20032;-76
2021/10/01 11:37:29;;;;;;;1.25;0.70;;;20.30;87.60;;;;;;5012690;28;20072;-76
2021/10/01 11:40:06;;;;;;;0.63;0.63;;;20.30;86.80;;;;;;5012766;28;20033;-76
2021/10/01 11:42:37;;;;;;;1.70;0.80;;;20.50;88.60;;;;;;5008646;28;20041;-76
2021/10/01 11:45:17;;;;;;;1.00;0.82;;;20.50;87.90;;;;;;5000793;28;20022;-73
2021/10/01 11:47:53;;;;;;;0.52;0.52;;;20.50;91.10;;;;;;4997790;28;20081;-76
2021/10/01 11:50:30;;;;;;;0.70;0.70;;;20.50;90.60;;;;;;4993034;28;20043;-76
2021/10/01 11:52:58;;;;;;;0.85;0.70;;;20.60;91.40;;;;;;5005918;28;20062;-76
2021/10/01 11:55:28;;;;;;;1.40;1.20;;;20.60;89.80;;;;;;5011978;28;20041;-76
2021/10/01 11:57:54;;;;;;;2.80;1.50;;;20.60;89.00;;;;;;5012608;28;20026;-76
2021/10/01 12:00:22;;;;;;;2.05;0.70;;;20.50;90.80;;;;;;5012929;28;20033;-76
2021/10/01 12:02:51;;;;;;;1.70;0.88;;;20.60;86.70;;;;;;5012884;28;20040;-76
2021/10/01 12:05:32;;;;;;;1.40;0.80;;;20.70;85.50;;;;;;5012775;28;20025;-76
2021/10/01 12:08:12;;;;;;;0.93;0.93;;;20.80;83.70;;;;;;5012099;28;20037;-76
2021/10/01 12:10:42;;;;;;;2.10;0.70;;;20.80;84.70;;;;;;5012681;28;20030;-76
2021/10/01 12:13:24;;;;;;;1.25;0.70;;;20.90;85.60;;;;;;5011613;28;20113;-76
2021/10/01 12:15:53;;;;;;;0.80;0.80;;;20.90;85.00;;;;;;5012722;28;20058;-76
2021/10/01 12:18:33;;;;;;;0.80;0.80;;;20.80;83.80;;;;;;5012680;28;20100;-75
2021/10/01 12:21:13;;;;;;;1.00;1.00;;;20.80;84.50;;;;;;5012592;28;20041;-76
2021/10/01 12:23:44;;;;;;;1.52;0.68;;;20.90;84.70;;;;;;5012588;28;20058;-76
2021/10/01 12:26:20;;;;;;;1.00;1.00;;;21.00;83.20;;;;;;5012694;28;20030;-76
2021/10/01 12:28:57;;;;;;;1.38;0.90;;;21.00;82.70;;;;;;5012513;28;20103;-76
2021/10/01 12:31:28;;;;;;;3.40;0.73;;;21.00;82.50;;;;;;5027752;28;20112;-76
2021/10/01 12:33:56;;;;;;;5.03;0.70;;;21.20;85.70;;;;;;5012634;28;20031;-76
2021/10/01 12:36:22;;;;;;;0.68;0.65;;;21.10;86.70;;;;;;5012479;28;20049;-76
2021/10/01 12:38:51;;;;;;;0.85;0.85;;;21.10;84.70;;;;;;5012419;28;20100;-76
2021/10/01 12:41:17;;;;;;;1.75;0.73;;;21.10;82.50;;;;;;5012623;28;20032;-76
2021/10/01 12:43:50;;;;;;;1.70;0.70;;;21.10;85.70;;;;;;5011171;28;20024;-76
2021/10/01 12:46:52;;;;;;;1.30;0.77;;;21.20;87.80;;;;;;5011052;28;20065;-76
2021/10/01 12:49:24;;;;;;;1.92;0.60;;;21.20;83.70;;;;;;4951829;29;20042;-75
2021/10/01 12:52:08;;;;;;;3.25;0.63;;;21.30;83.70;;;;;;5002908;28;20415;-76
2021/10/01 12:54:52;;;;;;;0.80;0.80;;;21.40;84.30;;;;;;5012416;28;20034;-76
2021/10/01 12:57:23;;;;;;;3.28;0.80;;;21.50;82.10;;;;;;5012217;28;20061;-76
2021/10/01 12:59:50;;;;;;;1.30;0.93;;;21.50;82.20;;;;;;5012331;28;20435;-76
2021/10/01 13:02:21;;;;;;;0.98;0.80;;;21.50;82.20;;;;;;5012542;28;20037;-76
2021/10/01 13:04:50;;;;;;;1.17;0.88;;;21.40;80.20;;;;;;5012222;28;20105;-76
2021/10/01 13:07:35;;;;;;;0.70;0.70;;;21.40;80.40;;;;;;5012202;28;20638;-76
2021/10/01 13:10:23;;;;;;;0.93;0.77;;;21.30;80.40;;;;;;5012099;28;20395;-76
2021/10/01 13:13:03;;;;;;;0.85;0.82;;;21.40;81.20;;;;;;5011631;28;20494;-76
2021/10/01 13:15:40;;;;;;;3.17;0.75;;;21.40;82.00;;;;;;5011852;28;20622;-76
2021/10/01 13:21:02;;;;;;;1.95;1.00;;;21.50;82.40;;;;;;5015544;28;20026;-76
2021/10/01 13:23:37;;;;;;;1.58;0.80;;;21.50;80.30;;;;;;5015478;28;20557;-76
2021/10/01 13:26:11;;;;;;;0.82;0.68;;;21.40;82.50;;;;;;5014262;28;20037;-76
2021/10/01 13:28:37;;;;;;;6.13;1.60;;;21.40;82.70;;;;;;5015329;28;20041;-76
2021/10/01 13:31:03;;;;;;;2.15;1.00;;;21.40;81.10;;;;;;5015294;28;20032;-76
2021/10/01 13:33:29;;;;;;;0.70;0.70;;;21.40;81.50;;;;;;5014060;28;20022;-76
2021/10/01 13:35:57;;;;;;;0.80;0.80;;;21.40;83.60;;;;;;5014119;28;20062;-76
2021/10/01 13:38:29;;;;;;;2.25;0.80;;;21.50;83.40;;;;;;5015167;28;20443;-76
2021/10/01 13:40:55;;;;;;;1.48;0.80;;;21.50;82.80;;;;;;5015149;28;20058;-76
2021/10/01 13:43:21;;;;;;;1.08;0.98;;;21.50;82.50;;;;;;5015235;28;20022;-73
2021/10/01 13:45:46;;;;;;;1.40;1.00;;;21.50;81.20;;;;;;5013844;28;20030;-73
2021/10/01 13:48:13;;;;;;;2.45;1.00;;;21.50;82.80;;;;;;5015133;28;20068;-73
2021/10/01 13:50:40;;;;;;;1.17;1.08;;;21.50;82.40;;;;;;5014482;28;20042;-73
2021/10/01 13:53:06;;;;;;;2.40;0.98;;;21.40;83.00;;;;;;5015030;28;20030;-73
2021/10/01 13:55:31;;;;;;;4.22;1.27;;;21.40;83.30;;;;;;5014879;28;20021;-73
2021/10/01 13:57:57;;;;;;;1.75;1.02;;;21.50;83.40;;;;;;5014845;28;20649;-73
2021/10/01 14:00:24;;;;;;;2.22;0.90;;;21.50;83.70;;;;;;5020150;28;20030;-73
2021/10/01 14:02:50;;;;;;;4.47;1.08;;;21.50;82.00;;;;;;4995288;28;20039;-73
2021/10/01 14:05:16;;;;;;;1.38;1.25;;;21.50;84.90;;;;;;5028743;28;20468;-73
2021/10/01 14:07:42;;;;;;;1.30;1.20;;;21.50;85.60;;;;;;5014841;28;20676;-73
2021/10/01 14:10:12;;;;;;;2.67;1.10;;;21.50;87.80;;;;;;5014580;28;20026;-73
2021/10/01 14:12:38;;;;;;;3.25;1.50;;;21.50;84.80;;;;;;5014844;28;20376;-73
2021/10/01 14:15:04;;;;;;;1.83;1.45;;;21.50;81.50;;;;;;5014335;28;20042;-73
2021/10/01 14:17:30;;;;;;;2.58;1.50;;;21.60;83.40;;;;;;5014085;28;20026;-73
2021/10/01 14:19:57;;;;;;;1.48;1.38;;;21.60;80.80;;;;;;5014592;28;20025;-74
2021/10/01 14:22:23;;;;;;;1.70;1.02;;;21.50;83.20;;;;;;5013916;28;20069;-73
2021/10/01 14:24:49;;;;;;;1.10;1.10;;;21.50;82.80;;;;;;5014199;28;20022;-73
2021/10/01 14:27:15;;;;;;;5.30;0.98;;;21.50;81.90;;;;;;5013120;28;20037;-76
2021/10/01 14:29:40;;;;;;;2.80;1.30;;;21.50;82.80;;;;;;5013673;28;20491;-76
2021/10/01 14:32:06;;;;;;;1.77;1.05;;;21.50;83.60;;;;;;5014304;28;20056;-76
2021/10/01 14:34:32;;;;;;;1.50;1.40;;;21.50;84.10;;;;;;5014256;28;20484;-76
2021/10/01 14:36:58;;;;;;;0.98;0.98;;;21.50;83.50;;;;;;5013043;28;20030;-76